Weott, California
Current Conditions -  °F | °C
As of 5:10 AM on Friday 24 Oct 2014 (Local Time) from KFOT Reporting Station
Overcast Overcast  
Wind Chill: 55°   Ceiling: 100
Heat Index: 55°   Visibility: 1mi
Dew Point: 55°   Wind: 3mph
Humidity: 100%   Direction: 100°E
Pressure: 29.92"   Gusts: NA
Location:  40.32°N, 123.92°W
Report Text: KFOT 241210Z AUTO 10003KT 1SM OVC001 13/13 A2992 RMK AO1 P0001
Loading
Personal Weather Stations






























Interactive Weather Map
Tropical Storm Tracking
New forecast layout! Learn more

10-Day Weather Forecast

Advertisements
Track Severe Weather on mobile